sensor_id;sensor_type;location;lat;lon;timestamp;P1;durP1;ratioP1;P2;durP2;ratioP2
1811;SDS011;904;47.814;11.134;2024-02-21T00:01:37;4.75;;;2.67;;
1811;SDS011;904;47.814;11.134;2024-02-21T00:04:04;4.40;;;2.92;;
1811;SDS011;904;47.814;11.134;2024-02-21T00:06:31;6.22;;;2.80;;
1811;SDS011;904;47.814;11.134;2024-02-21T00:08:58;3.40;;;1.83;;
1811;SDS011;904;47.814;11.134;2024-02-21T00:11:26;4.80;;;2.55;;
1811;SDS011;904;47.814;11.134;2024-02-21T00:13:54;6.13;;;2.50;;
1811;SDS011;904;47.814;11.134;2024-02-21T00:16:21;6.22;;;2.50;;
1811;SDS011;904;47.814;11.134;2024-02-21T00:18:48;4.60;;;2.00;;
1811;SDS011;904;47.814;11.134;2024-02-21T00:21:15;4.10;;;2.40;;
1811;SDS011;904;47.814;11.134;2024-02-21T00:23:43;5.57;;;2.72;;
1811;SDS011;904;47.814;11.134;2024-02-21T00:26:12;7.15;;;3.63;;
1811;SDS011;904;47.814;11.134;2024-02-21T00:28:40;5.68;;;3.80;;
1811;SDS011;904;47.814;11.134;2024-02-21T00:31:08;6.70;;;3.03;;
1811;SDS011;904;47.814;11.134;2024-02-21T00:33:35;6.53;;;3.13;;
1811;SDS011;904;47.814;11.134;2024-02-21T00:36:02;6.20;;;2.60;;
1811;SDS011;904;47.814;11.134;2024-02-21T00:38:29;6.50;;;2.90;;
1811;SDS011;904;47.814;11.134;2024-02-21T00:40:56;7.90;;;2.35;;
1811;SDS011;904;47.814;11.134;2024-02-21T00:43:23;4.72;;;2.28;;
1811;SDS011;904;47.814;11.134;2024-02-21T00:45:51;5.40;;;2.25;;
1811;SDS011;904;47.814;11.134;2024-02-21T00:48:19;5.85;;;2.67;;
1811;SDS011;904;47.814;11.134;2024-02-21T00:50:46;3.80;;;2.08;;
1811;SDS011;904;47.814;11.134;2024-02-21T00:53:12;3.95;;;1.92;;
1811;SDS011;904;47.814;11.134;2024-02-21T00:55:39;4.88;;;2.35;;
1811;SDS011;904;47.814;11.134;2024-02-21T00:58:08;3.60;;;2.03;;
1811;SDS011;904;47.814;11.134;2024-02-21T01:00:35;4.93;;;1.58;;
1811;SDS011;904;47.814;11.134;2024-02-21T01:03:04;4.32;;;1.77;;
1811;SDS011;904;47.814;11.134;2024-02-21T01:05:31;3.83;;;1.90;;
1811;SDS011;904;47.814;11.134;2024-02-21T01:07:58;6.80;;;2.08;;
1811;SDS011;904;47.814;11.134;2024-02-21T01:10:25;2.83;;;1.33;;
1811;SDS011;904;47.814;11.134;2024-02-21T01:12:52;5.05;;;1.77;;
1811;SDS011;904;47.814;11.134;2024-02-21T01:15:19;3.28;;;1.17;;
1811;SDS011;904;47.814;11.134;2024-02-21T01:17:46;3.10;;;1.50;;
1811;SDS011;904;47.814;11.134;2024-02-21T01:20:16;3.10;;;1.60;;
1811;SDS011;904;47.814;11.134;2024-02-21T01:22:43;3.30;;;1.67;;
1811;SDS011;904;47.814;11.134;2024-02-21T01:25:10;4.47;;;2.92;;
1811;SDS011;904;47.814;11.134;2024-02-21T01:27:37;3.40;;;1.50;;
1811;SDS011;904;47.814;11.134;2024-02-21T01:30:05;4.22;;;1.23;;
1811;SDS011;904;47.814;11.134;2024-02-21T01:32:33;3.75;;;1.63;;
1811;SDS011;904;47.814;11.134;2024-02-21T01:35:00;2.92;;;1.83;;
1811;SDS011;904;47.814;11.134;2024-02-21T01:37:29;2.67;;;1.52;;
1811;SDS011;904;47.814;11.134;2024-02-21T01:39:56;3.05;;;1.88;;
1811;SDS011;904;47.814;11.134;2024-02-21T01:42:23;5.32;;;2.17;;
1811;SDS011;904;47.814;11.134;2024-02-21T01:44:49;5.63;;;2.67;;
1811;SDS011;904;47.814;11.134;2024-02-21T01:47:18;5.97;;;2.13;;
1811;SDS011;904;47.814;11.134;2024-02-21T01:49:45;4.43;;;2.65;;
1811;SDS011;904;47.814;11.134;2024-02-21T01:52:12;4.65;;;2.45;;
1811;SDS011;904;47.814;11.134;2024-02-21T01:54:43;6.22;;;2.15;;
1811;SDS011;904;47.814;11.134;2024-02-21T01:57:11;3.78;;;2.17;;
1811;SDS011;904;47.814;11.134;2024-02-21T01:59:38;5.28;;;2.10;;
1811;SDS011;904;47.814;11.134;2024-02-21T02:02:05;3.80;;;1.60;;
1811;SDS011;904;47.814;11.134;2024-02-21T02:04:32;4.47;;;1.70;;
1811;SDS011;904;47.814;11.134;2024-02-21T02:07:01;4.55;;;1.80;;
1811;SDS011;904;47.814;11.134;2024-02-21T02:09:30;3.75;;;1.80;;
1811;SDS011;904;47.814;11.134;2024-02-21T02:12:00;4.25;;;2.30;;
1811;SDS011;904;47.814;11.134;2024-02-21T02:14:29;4.03;;;2.20;;
1811;SDS011;904;47.814;11.134;2024-02-21T02:16:56;4.63;;;2.50;;
1811;SDS011;904;47.814;11.134;2024-02-21T02:19:23;3.40;;;2.22;;
1811;SDS011;904;47.814;11.134;2024-02-21T02:21:51;3.75;;;2.25;;
1811;SDS011;904;47.814;11.134;2024-02-21T02:24:24;3.78;;;1.90;;
1811;SDS011;904;47.814;11.134;2024-02-21T02:26:51;3.10;;;1.60;;
1811;SDS011;904;47.814;11.134;2024-02-21T02:29:19;3.00;;;1.50;;
1811;SDS011;904;47.814;11.134;2024-02-21T02:31:46;3.42;;;1.60;;
1811;SDS011;904;47.814;11.134;2024-02-21T02:34:12;3.75;;;1.63;;
1811;SDS011;904;47.814;11.134;2024-02-21T02:36:39;4.35;;;2.00;;
1811;SDS011;904;47.814;11.134;2024-02-21T02:39:06;3.17;;;1.75;;
1811;SDS011;904;47.814;11.134;2024-02-21T02:41:36;3.40;;;1.60;;
1811;SDS011;904;47.814;11.134;2024-02-21T02:44:03;2.83;;;1.30;;
1811;SDS011;904;47.814;11.134;2024-02-21T02:46:30;2.65;;;1.20;;
1811;SDS011;904;47.814;11.134;2024-02-21T02:48:57;2.30;;;1.30;;
1811;SDS011;904;47.814;11.134;2024-02-21T02:51:24;2.42;;;1.27;;
1811;SDS011;904;47.814;11.134;2024-02-21T02:53:51;2.78;;;1.45;;
1811;SDS011;904;47.814;11.134;2024-02-21T02:56:18;2.63;;;1.20;;
1811;SDS011;904;47.814;11.134;2024-02-21T02:58:47;2.58;;;1.40;;
1811;SDS011;904;47.814;11.134;2024-02-21T03:01:14;4.28;;;1.70;;
1811;SDS011;904;47.814;11.134;2024-02-21T03:03:41;2.40;;;1.08;;
1811;SDS011;904;47.814;11.134;2024-02-21T03:06:08;2.63;;;1.23;;
1811;SDS011;904;47.814;11.134;2024-02-21T03:08:35;3.88;;;1.77;;
1811;SDS011;904;47.814;11.134;2024-02-21T03:11:02;4.30;;;2.60;;
1811;SDS011;904;47.814;11.134;2024-02-21T03:13:29;3.10;;;1.58;;
1811;SDS011;904;47.814;11.134;2024-02-21T03:15:58;2.70;;;1.73;;
1811;SDS011;904;47.814;11.134;2024-02-21T03:18:24;3.08;;;1.55;;
1811;SDS011;904;47.814;11.134;2024-02-21T03:20:52;2.50;;;1.23;;
1811;SDS011;904;47.814;11.134;2024-02-21T03:23:19;2.20;;;1.00;;
1811;SDS011;904;47.814;11.134;2024-02-21T03:25:46;2.42;;;1.40;;
1811;SDS011;904;47.814;11.134;2024-02-21T03:28:13;3.17;;;1.33;;
1811;SDS011;904;47.814;11.134;2024-02-21T03:30:40;2.55;;;1.00;;
1811;SDS011;904;47.814;11.134;2024-02-21T03:33:08;2.42;;;1.10;;
1811;SDS011;904;47.814;11.134;2024-02-21T03:35:35;2.10;;;1.30;;
1811;SDS011;904;47.814;11.134;2024-02-21T03:38:02;2.70;;;1.20;;
1811;SDS011;904;47.814;11.134;2024-02-21T03:40:29;2.33;;;1.15;;
1811;SDS011;904;47.814;11.134;2024-02-21T03:42:56;2.70;;;1.08;;
1811;SDS011;904;47.814;11.134;2024-02-21T03:45:24;2.67;;;1.20;;
1811;SDS011;904;47.814;11.134;2024-02-21T03:47:51;2.75;;;1.15;;
1811;SDS011;904;47.814;11.134;2024-02-21T03:50:19;4.07;;;1.90;;
1811;SDS011;904;47.814;11.134;2024-02-21T03:52:46;2.70;;;1.25;;
1811;SDS011;904;47.814;11.134;2024-02-21T03:55:13;3.05;;;1.20;;
1811;SDS011;904;47.814;11.134;2024-02-21T03:57:40;2.78;;;1.15;;
1811;SDS011;904;47.814;11.134;2024-02-21T04:00:07;3.55;;;1.25;;
1811;SDS011;904;47.814;11.134;2024-02-21T04:02:38;4.93;;;1.50;;
1811;SDS011;904;47.814;11.134;2024-02-21T04:05:06;2.97;;;1.40;;
1811;SDS011;904;47.814;11.134;2024-02-21T04:07:37;2.10;;;1.02;;
1811;SDS011;904;47.814;11.134;2024-02-21T04:10:05;2.50;;;1.20;;
1811;SDS011;904;47.814;11.134;2024-02-21T04:12:32;2.60;;;1.13;;
1811;SDS011;904;47.814;11.134;2024-02-21T04:14:59;3.05;;;1.42;;
1811;SDS011;904;47.814;11.134;2024-02-21T04:17:26;2.53;;;1.02;;
1811;SDS011;904;47.814;11.134;2024-02-21T04:19:55;2.30;;;1.10;;
1811;SDS011;904;47.814;11.134;2024-02-21T04:22:30;2.97;;;1.42;;
1811;SDS011;904;47.814;11.134;2024-02-21T04:25:00;4.57;;;1.10;;
1811;SDS011;904;47.814;11.134;2024-02-21T04:27:27;3.88;;;1.65;;
1811;SDS011;904;47.814;11.134;2024-02-21T04:29:54;3.65;;;2.25;;
1811;SDS011;904;47.814;11.134;2024-02-21T04:32:21;4.53;;;1.80;;
1811;SDS011;904;47.814;11.134;2024-02-21T04:34:49;3.90;;;2.25;;
1811;SDS011;904;47.814;11.134;2024-02-21T04:37:16;4.70;;;2.17;;
1811;SDS011;904;47.814;11.134;2024-02-21T04:39:44;4.63;;;2.20;;
1811;SDS011;904;47.814;11.134;2024-02-21T04:42:12;4.30;;;1.95;;
1811;SDS011;904;47.814;11.134;2024-02-21T04:44:40;2.85;;;1.80;;
1811;SDS011;904;47.814;11.134;2024-02-21T04:47:08;3.38;;;2.08;;
1811;SDS011;904;47.814;11.134;2024-02-21T04:49:35;4.10;;;2.05;;
1811;SDS011;904;47.814;11.134;2024-02-21T04:52:02;2.80;;;1.42;;
1811;SDS011;904;47.814;11.134;2024-02-21T04:54:29;3.90;;;2.70;;
1811;SDS011;904;47.814;11.134;2024-02-21T04:56:56;4.45;;;2.55;;
1811;SDS011;904;47.814;11.134;2024-02-21T04:59:24;3.15;;;1.80;;
1811;SDS011;904;47.814;11.134;2024-02-21T05:01:52;3.58;;;1.92;;
1811;SDS011;904;47.814;11.134;2024-02-21T05:04:19;3.45;;;1.77;;
1811;SDS011;904;47.814;11.134;2024-02-21T05:06:46;5.25;;;2.20;;
1811;SDS011;904;47.814;11.134;2024-02-21T05:09:13;3.40;;;2.70;;
1811;SDS011;904;47.814;11.134;2024-02-21T05:11:41;6.65;;;2.50;;
1811;SDS011;904;47.814;11.134;2024-02-21T05:14:08;3.97;;;2.05;;
1811;SDS011;904;47.814;11.134;2024-02-21T05:16:36;5.35;;;2.05;;
1811;SDS011;904;47.814;11.134;2024-02-21T05:19:05;3.10;;;1.63;;
1811;SDS011;904;47.814;11.134;2024-02-21T05:21:32;8.43;;;2.17;;
1811;SDS011;904;47.814;11.134;2024-02-21T05:23:59;3.00;;;1.95;;
1811;SDS011;904;47.814;11.134;2024-02-21T05:26:27;3.17;;;1.60;;
1811;SDS011;904;47.814;11.134;2024-02-21T05:28:54;4.03;;;1.73;;
1811;SDS011;904;47.814;11.134;2024-02-21T05:31:21;3.03;;;1.63;;
1811;SDS011;904;47.814;11.134;2024-02-21T05:33:50;2.80;;;1.58;;
1811;SDS011;904;47.814;11.134;2024-02-21T05:36:17;2.78;;;1.60;;
1811;SDS011;904;47.814;11.134;2024-02-21T05:38:44;2.85;;;1.75;;
1811;SDS011;904;47.814;11.134;2024-02-21T05:41:11;2.75;;;1.52;;
1811;SDS011;904;47.814;11.134;2024-02-21T05:43:38;4.03;;;2.15;;
1811;SDS011;904;47.814;11.134;2024-02-21T05:46:06;4.28;;;2.47;;
1811;SDS011;904;47.814;11.134;2024-02-21T05:48:35;4.63;;;2.38;;
1811;SDS011;904;47.814;11.134;2024-02-21T05:51:04;3.70;;;1.85;;
1811;SDS011;904;47.814;11.134;2024-02-21T05:53:31;3.72;;;1.50;;
1811;SDS011;904;47.814;11.134;2024-02-21T05:55:57;3.53;;;1.50;;
1811;SDS011;904;47.814;11.134;2024-02-21T05:58:24;6.47;;;2.10;;
1811;SDS011;904;47.814;11.134;2024-02-21T06:00:52;4.30;;;2.35;;
1811;SDS011;904;47.814;11.134;2024-02-21T06:03:19;3.58;;;1.90;;
1811;SDS011;904;47.814;11.134;2024-02-21T06:05:46;3.70;;;2.42;;
1811;SDS011;904;47.814;11.134;2024-02-21T06:08:15;3.97;;;2.42;;
1811;SDS011;904;47.814;11.134;2024-02-21T06:10:42;4.45;;;2.35;;
1811;SDS011;904;47.814;11.134;2024-02-21T06:13:09;3.58;;;1.92;;
1811;SDS011;904;47.814;11.134;2024-02-21T06:15:35;4.78;;;3.00;;
1811;SDS011;904;47.814;11.134;2024-02-21T06:18:03;3.35;;;2.50;;
1811;SDS011;904;47.814;11.134;2024-02-21T06:20:30;5.32;;;3.05;;
1811;SDS011;904;47.814;11.134;2024-02-21T06:22:57;4.75;;;2.30;;
1811;SDS011;904;47.814;11.134;2024-02-21T06:25:25;3.60;;;1.90;;
1811;SDS011;904;47.814;11.134;2024-02-21T06:27:52;3.15;;;1.85;;
1811;SDS011;904;47.814;11.134;2024-02-21T06:30:19;2.90;;;1.80;;
1811;SDS011;904;47.814;11.134;2024-02-21T06:32:46;3.60;;;2.10;;
1811;SDS011;904;47.814;11.134;2024-02-21T06:35:13;3.38;;;1.85;;
1811;SDS011;904;47.814;11.134;2024-02-21T06:37:40;5.90;;;3.38;;
1811;SDS011;904;47.814;11.134;2024-02-21T06:40:07;4.35;;;2.30;;
1811;SDS011;904;47.814;11.134;2024-02-21T06:42:36;5.30;;;2.42;;
1811;SDS011;904;47.814;11.134;2024-02-21T06:45:03;3.65;;;2.40;;
1811;SDS011;904;47.814;11.134;2024-02-21T06:47:31;4.25;;;2.10;;
1811;SDS011;904;47.814;11.134;2024-02-21T06:49:58;4.90;;;1.50;;
1811;SDS011;904;47.814;11.134;2024-02-21T06:52:24;2.42;;;1.48;;
1811;SDS011;904;47.814;11.134;2024-02-21T06:54:52;3.25;;;1.63;;
1811;SDS011;904;47.814;11.134;2024-02-21T06:57:19;3.20;;;1.80;;
1811;SDS011;904;47.814;11.134;2024-02-21T06:59:48;3.55;;;2.15;;
1811;SDS011;904;47.814;11.134;2024-02-21T07:02:15;3.30;;;2.03;;
1811;SDS011;904;47.814;11.134;2024-02-21T07:04:42;2.92;;;1.95;;
1811;SDS011;904;47.814;11.134;2024-02-21T07:07:09;2.55;;;1.38;;
1811;SDS011;904;47.814;11.134;2024-02-21T07:09:36;2.80;;;1.40;;
1811;SDS011;904;47.814;11.134;2024-02-21T07:12:03;4.60;;;2.30;;
1811;SDS011;904;47.814;11.134;2024-02-21T07:14:31;2.78;;;1.67;;
1811;SDS011;904;47.814;11.134;2024-02-21T07:17:00;2.85;;;1.35;;
1811;SDS011;904;47.814;11.134;2024-02-21T07:19:27;2.30;;;1.30;;
1811;SDS011;904;47.814;11.134;2024-02-21T07:21:54;5.10;;;1.75;;
1811;SDS011;904;47.814;11.134;2024-02-21T07:24:21;2.85;;;1.80;;
1811;SDS011;904;47.814;11.134;2024-02-21T07:26:48;5.40;;;3.38;;
1811;SDS011;904;47.814;11.134;2024-02-21T07:29:15;10.07;;;4.85;;
1811;SDS011;904;47.814;11.134;2024-02-21T07:31:44;7.18;;;2.72;;
1811;SDS011;904;47.814;11.134;2024-02-21T07:34:15;5.63;;;2.67;;
1811;SDS011;904;47.814;11.134;2024-02-21T07:36:42;4.22;;;3.20;;
1811;SDS011;904;47.814;11.134;2024-02-21T07:39:09;5.78;;;3.50;;
1811;SDS011;904;47.814;11.134;2024-02-21T07:41:37;4.50;;;3.03;;
1811;SDS011;904;47.814;11.134;2024-02-21T07:44:04;4.32;;;2.55;;
1811;SDS011;904;47.814;11.134;2024-02-21T07:46:31;3.45;;;1.90;;
1811;SDS011;904;47.814;11.134;2024-02-21T07:48:58;2.85;;;1.67;;
1811;SDS011;904;47.814;11.134;2024-02-21T07:51:28;5.53;;;2.38;;
1811;SDS011;904;47.814;11.134;2024-02-21T07:53:55;2.65;;;1.60;;
1811;SDS011;904;47.814;11.134;2024-02-21T07:56:22;3.25;;;1.60;;
1811;SDS011;904;47.814;11.134;2024-02-21T07:58:49;2.85;;;1.55;;
1811;SDS011;904;47.814;11.134;2024-02-21T08:01:18;2.30;;;1.10;;
1811;SDS011;904;47.814;11.134;2024-02-21T08:03:45;3.45;;;0.90;;
1811;SDS011;904;47.814;11.134;2024-02-21T08:06:12;2.30;;;0.90;;
1811;SDS011;904;47.814;11.134;2024-02-21T08:08:41;1.95;;;0.85;;
1811;SDS011;904;47.814;11.134;2024-02-21T08:11:08;3.95;;;1.50;;
1811;SDS011;904;47.814;11.134;2024-02-21T08:13:35;2.60;;;1.17;;
1811;SDS011;904;47.814;11.134;2024-02-21T08:16:02;3.67;;;1.50;;
1811;SDS011;904;47.814;11.134;2024-02-21T08:18:29;3.35;;;2.00;;
1811;SDS011;904;47.814;11.134;2024-02-21T08:20:56;3.20;;;1.50;;
1811;SDS011;904;47.814;11.134;2024-02-21T08:23:23;4.78;;;2.72;;
1811;SDS011;904;47.814;11.134;2024-02-21T08:25:52;2.80;;;1.70;;
1811;SDS011;904;47.814;11.134;2024-02-21T08:28:19;3.42;;;1.83;;
1811;SDS011;904;47.814;11.134;2024-02-21T08:30:46;2.88;;;1.40;;
1811;SDS011;904;47.814;11.134;2024-02-21T08:33:13;2.83;;;1.70;;
1811;SDS011;904;47.814;11.134;2024-02-21T08:35:41;3.20;;;1.73;;
1811;SDS011;904;47.814;11.134;2024-02-21T08:38:08;3.13;;;0.97;;
1811;SDS011;904;47.814;11.134;2024-02-21T08:40:35;2.73;;;1.20;;
1811;SDS011;904;47.814;11.134;2024-02-21T08:43:04;2.53;;;1.50;;
1811;SDS011;904;47.814;11.134;2024-02-21T08:45:31;1.90;;;0.90;;
1811;SDS011;904;47.814;11.134;2024-02-21T08:47:58;2.50;;;1.03;;
1811;SDS011;904;47.814;11.134;2024-02-21T08:50:25;3.27;;;1.77;;
1811;SDS011;904;47.814;11.134;2024-02-21T08:52:52;2.43;;;1.10;;
1811;SDS011;904;47.814;11.134;2024-02-21T08:55:19;2.70;;;1.07;;
1811;SDS011;904;47.814;11.134;2024-02-21T08:57:46;4.47;;;0.90;;
1811;SDS011;904;47.814;11.134;2024-02-21T09:00:16;2.37;;;1.17;;
1811;SDS011;904;47.814;11.134;2024-02-21T09:02:44;6.17;;;1.30;;
1811;SDS011;904;47.814;11.134;2024-02-21T09:05:11;2.30;;;1.00;;
1811;SDS011;904;47.814;11.134;2024-02-21T09:07:38;3.20;;;1.30;;
1811;SDS011;904;47.814;11.134;2024-02-21T09:10:05;2.13;;;0.83;;
1811;SDS011;904;47.814;11.134;2024-02-21T09:12:33;2.27;;;0.97;;
1811;SDS011;904;47.814;11.134;2024-02-21T09:15:00;4.97;;;1.00;;
1811;SDS011;904;47.814;11.134;2024-02-21T09:17:28;3.10;;;1.20;;
1811;SDS011;904;47.814;11.134;2024-02-21T09:19:55;2.30;;;0.90;;
1811;SDS011;904;47.814;11.134;2024-02-21T09:22:24;2.30;;;0.70;;
1811;SDS011;904;47.814;11.134;2024-02-21T09:24:51;2.20;;;0.80;;
1811;SDS011;904;47.814;11.134;2024-02-21T09:27:18;2.73;;;1.10;;
1811;SDS011;904;47.814;11.134;2024-02-21T09:29:45;3.23;;;0.90;;
1811;SDS011;904;47.814;11.134;2024-02-21T09:32:12;3.50;;;1.30;;
1811;SDS011;904;47.814;11.134;2024-02-21T09:34:41;2.60;;;1.30;;
1811;SDS011;904;47.814;11.134;2024-02-21T09:37:08;3.27;;;1.40;;
1811;SDS011;904;47.814;11.134;2024-02-21T09:39:34;3.13;;;1.40;;
1811;SDS011;904;47.814;11.134;2024-02-21T09:42:03;2.47;;;0.93;;
1811;SDS011;904;47.814;11.134;2024-02-21T09:44:33;2.93;;;1.33;;
1811;SDS011;904;47.814;11.134;2024-02-21T09:47:04;2.40;;;1.17;;
1811;SDS011;904;47.814;11.134;2024-02-21T09:49:33;2.33;;;1.10;;
1811;SDS011;904;47.814;11.134;2024-02-21T09:52:05;2.50;;;1.10;;
1811;SDS011;904;47.814;11.134;2024-02-21T09:54:38;3.20;;;0.90;;
1811;SDS011;904;47.814;11.134;2024-02-21T09:57:09;3.50;;;0.93;;
1811;SDS011;904;47.814;11.134;2024-02-21T09:59:37;2.50;;;1.10;;
1811;SDS011;904;47.814;11.134;2024-02-21T10:02:04;5.63;;;1.70;;
1811;SDS011;904;47.814;11.134;2024-02-21T10:04:31;2.77;;;1.10;;
1811;SDS011;904;47.814;11.134;2024-02-21T10:06:58;2.77;;;1.20;;
1811;SDS011;904;47.814;11.134;2024-02-21T10:09:27;2.77;;;1.10;;
1811;SDS011;904;47.814;11.134;2024-02-21T10:11:54;2.73;;;0.93;;
1811;SDS011;904;47.814;11.134;2024-02-21T10:14:22;2.50;;;1.00;;
1811;SDS011;904;47.814;11.134;2024-02-21T10:16:56;2.80;;;1.10;;
1811;SDS011;904;47.814;11.134;2024-02-21T10:19:24;4.33;;;1.20;;
1811;SDS011;904;47.814;11.134;2024-02-21T10:22:01;3.07;;;1.33;;
1811;SDS011;904;47.814;11.134;2024-02-21T10:24:31;3.23;;;1.10;;
1811;SDS011;904;47.814;11.134;2024-02-21T10:26:59;3.40;;;1.40;;
1811;SDS011;904;47.814;11.134;2024-02-21T10:29:28;2.77;;;1.30;;
1811;SDS011;904;47.814;11.134;2024-02-21T10:32:03;3.20;;;1.03;;
1811;SDS011;904;47.814;11.134;2024-02-21T10:34:34;2.47;;;1.10;;
1811;SDS011;904;47.814;11.134;2024-02-21T10:37:02;2.00;;;0.80;;
1811;SDS011;904;47.814;11.134;2024-02-21T10:39:31;3.70;;;0.70;;
1811;SDS011;904;47.814;11.134;2024-02-21T10:41:59;1.97;;;0.77;;
1811;SDS011;904;47.814;11.134;2024-02-21T10:44:29;2.00;;;0.73;;
1811;SDS011;904;47.814;11.134;2024-02-21T10:46:57;2.27;;;1.10;;
1811;SDS011;904;47.814;11.134;2024-02-21T10:49:24;3.40;;;0.70;;
1811;SDS011;904;47.814;11.134;2024-02-21T10:51:54;3.03;;;0.70;;
1811;SDS011;904;47.814;11.134;2024-02-21T10:54:29;2.13;;;0.77;;
1811;SDS011;904;47.814;11.134;2024-02-21T10:57:05;3.00;;;0.77;;
1811;SDS011;904;47.814;11.134;2024-02-21T10:59:35;2.30;;;0.70;;
1811;SDS011;904;47.814;11.134;2024-02-21T11:02:03;1.83;;;0.60;;
1811;SDS011;904;47.814;11.134;2024-02-21T11:04:31;2.10;;;0.70;;
1811;SDS011;904;47.814;11.134;2024-02-21T11:07:01;3.40;;;0.80;;
1811;SDS011;904;47.814;11.134;2024-02-21T11:09:30;2.17;;;0.70;;
1811;SDS011;904;47.814;11.134;2024-02-21T11:12:01;3.07;;;1.13;;
1811;SDS011;904;47.814;11.134;2024-02-21T11:14:30;3.30;;;0.70;;
1811;SDS011;904;47.814;11.134;2024-02-21T11:17:00;2.00;;;0.90;;
1811;SDS011;904;47.814;11.134;2024-02-21T11:19:29;2.23;;;0.73;;
1811;SDS011;904;47.814;11.134;2024-02-21T11:21:56;2.33;;;0.73;;
1811;SDS011;904;47.814;11.134;2024-02-21T11:24:26;2.47;;;0.70;;
1811;SDS011;904;47.814;11.134;2024-02-21T11:26:55;3.90;;;0.80;;
1811;SDS011;904;47.814;11.134;2024-02-21T11:29:26;2.77;;;0.60;;
1811;SDS011;904;47.814;11.134;2024-02-21T11:31:54;2.97;;;1.07;;
1811;SDS011;904;47.814;11.134;2024-02-21T11:34:21;2.00;;;0.60;;
1811;SDS011;904;47.814;11.134;2024-02-21T11:36:49;3.00;;;0.70;;
1811;SDS011;904;47.814;11.134;2024-02-21T11:39:20;1.93;;;0.60;;
1811;SDS011;904;47.814;11.134;2024-02-21T11:41:58;5.90;;;0.60;;
1811;SDS011;904;47.814;11.134;2024-02-21T11:44:31;2.10;;;0.60;;
1811;SDS011;904;47.814;11.134;2024-02-21T11:46:58;2.07;;;0.60;;
1811;SDS011;904;47.814;11.134;2024-02-21T11:49:28;2.63;;;1.33;;
1811;SDS011;904;47.814;11.134;2024-02-21T11:51:58;1.80;;;0.50;;
1811;SDS011;904;47.814;11.134;2024-02-21T11:54:29;3.03;;;0.60;;
1811;SDS011;904;47.814;11.134;2024-02-21T11:57:00;1.80;;;0.57;;
1811;SDS011;904;47.814;11.134;2024-02-21T11:59:31;2.00;;;0.60;;
1811;SDS011;904;47.814;11.134;2024-02-21T12:01:58;1.83;;;0.50;;
1811;SDS011;904;47.814;11.134;2024-02-21T12:04:26;1.80;;;0.60;;
1811;SDS011;904;47.814;11.134;2024-02-21T12:06:53;1.83;;;0.50;;
1811;SDS011;904;47.814;11.134;2024-02-21T12:09:22;3.50;;;0.80;;
1811;SDS011;904;47.814;11.134;2024-02-21T12:11:56;2.20;;;0.60;;
1811;SDS011;904;47.814;11.134;2024-02-21T12:14:25;2.90;;;0.70;;
1811;SDS011;904;47.814;11.134;2024-02-21T12:16:54;2.37;;;0.60;;
1811;SDS011;904;47.814;11.134;2024-02-21T12:19:21;1.80;;;0.50;;
1811;SDS011;904;47.814;11.134;2024-02-21T12:21:48;1.90;;;0.50;;
1811;SDS011;904;47.814;11.134;2024-02-21T12:24:17;1.70;;;0.50;;
1811;SDS011;904;47.814;11.134;2024-02-21T12:26:48;2.20;;;0.60;;
1811;SDS011;904;47.814;11.134;2024-02-21T12:29:15;2.43;;;1.03;;
1811;SDS011;904;47.814;11.134;2024-02-21T12:31:46;3.70;;;0.70;;
1811;SDS011;904;47.814;11.134;2024-02-21T12:34:15;1.90;;;0.60;;
1811;SDS011;904;47.814;11.134;2024-02-21T12:36:43;2.20;;;0.70;;
1811;SDS011;904;47.814;11.134;2024-02-21T12:39:12;1.87;;;0.53;;
1811;SDS011;904;47.814;11.134;2024-02-21T12:41:39;3.03;;;0.70;;
1811;SDS011;904;47.814;11.134;2024-02-21T12:44:08;2.10;;;0.80;;
1811;SDS011;904;47.814;11.134;2024-02-21T12:46:39;1.97;;;0.70;;
1811;SDS011;904;47.814;11.134;2024-02-21T12:49:07;2.67;;;0.80;;
1811;SDS011;904;47.814;11.134;2024-02-21T12:51:36;2.20;;;0.90;;
1811;SDS011;904;47.814;11.134;2024-02-21T12:54:04;2.00;;;0.50;;
1811;SDS011;904;47.814;11.134;2024-02-21T12:56:36;2.10;;;0.80;;
1811;SDS011;904;47.814;11.134;2024-02-21T12:59:03;1.90;;;0.50;;
1811;SDS011;904;47.814;11.134;2024-02-21T13:01:30;1.80;;;0.53;;
1811;SDS011;904;47.814;11.134;2024-02-21T13:03:57;2.00;;;0.60;;
1811;SDS011;904;47.814;11.134;2024-02-21T13:06:26;1.90;;;0.60;;
1811;SDS011;904;47.814;11.134;2024-02-21T13:08:54;2.03;;;0.80;;
1811;SDS011;904;47.814;11.134;2024-02-21T13:11:21;2.50;;;0.90;;
1811;SDS011;904;47.814;11.134;2024-02-21T13:13:52;1.97;;;0.70;;
1811;SDS011;904;47.814;11.134;2024-02-21T13:16:19;4.40;;;0.80;;
1811;SDS011;904;47.814;11.134;2024-02-21T13:18:47;2.30;;;0.80;;
1811;SDS011;904;47.814;11.134;2024-02-21T13:21:14;2.67;;;0.80;;
1811;SDS011;904;47.814;11.134;2024-02-21T13:23:41;2.00;;;0.60;;
1811;SDS011;904;47.814;11.134;2024-02-21T13:26:10;1.90;;;0.60;;
1811;SDS011;904;47.814;11.134;2024-02-21T13:28:37;1.70;;;0.50;;
1811;SDS011;904;47.814;11.134;2024-02-21T13:31:04;2.20;;;0.80;;
1811;SDS011;904;47.814;11.134;2024-02-21T13:33:31;1.80;;;0.50;;
1811;SDS011;904;47.814;11.134;2024-02-21T13:35:58;2.17;;;0.67;;
1811;SDS011;904;47.814;11.134;2024-02-21T13:38:27;1.90;;;0.60;;
1811;SDS011;904;47.814;11.134;2024-02-21T13:40:53;2.37;;;1.00;;
1811;SDS011;904;47.814;11.134;2024-02-21T13:43:22;2.90;;;0.80;;
1811;SDS011;904;47.814;11.134;2024-02-21T13:45:57;2.20;;;0.80;;
1811;SDS011;904;47.814;11.134;2024-02-21T13:48:25;1.90;;;0.60;;
1811;SDS011;904;47.814;11.134;2024-02-21T13:50:54;2.20;;;0.83;;
1811;SDS011;904;47.814;11.134;2024-02-21T13:53:21;2.00;;;0.60;;
1811;SDS011;904;47.814;11.134;2024-02-21T13:55:48;2.10;;;0.70;;
1811;SDS011;904;47.814;11.134;2024-02-21T13:58:15;2.17;;;0.80;;
1811;SDS011;904;47.814;11.134;2024-02-21T14:00:44;2.30;;;0.90;;
1811;SDS011;904;47.814;11.134;2024-02-21T14:03:11;1.73;;;0.50;;
1811;SDS011;904;47.814;11.134;2024-02-21T14:05:38;2.03;;;0.70;;
1811;SDS011;904;47.814;11.134;2024-02-21T14:08:06;3.23;;;0.70;;
1811;SDS011;904;47.814;11.134;2024-02-21T14:10:33;2.00;;;0.77;;
1811;SDS011;904;47.814;11.134;2024-02-21T14:12:59;2.40;;;0.70;;
1811;SDS011;904;47.814;11.134;2024-02-21T14:15:26;2.30;;;0.80;;
1811;SDS011;904;47.814;11.134;2024-02-21T14:17:55;2.00;;;0.60;;
1811;SDS011;904;47.814;11.134;2024-02-21T14:20:22;2.57;;;0.73;;
1811;SDS011;904;47.814;11.134;2024-02-21T14:22:49;2.10;;;0.60;;
1811;SDS011;904;47.814;11.134;2024-02-21T14:25:16;2.00;;;0.80;;
1811;SDS011;904;47.814;11.134;2024-02-21T14:27:43;2.33;;;0.90;;
1811;SDS011;904;47.814;11.134;2024-02-21T14:30:10;2.60;;;0.90;;
1811;SDS011;904;47.814;11.134;2024-02-21T14:32:37;2.23;;;0.67;;
1811;SDS011;904;47.814;11.134;2024-02-21T14:35:09;3.43;;;0.63;;
1811;SDS011;904;47.814;11.134;2024-02-21T14:37:35;2.17;;;0.70;;
1811;SDS011;904;47.814;11.134;2024-02-21T14:40:03;4.90;;;0.73;;
1811;SDS011;904;47.814;11.134;2024-02-21T14:42:31;1.93;;;0.57;;
1811;SDS011;904;47.814;11.134;2024-02-21T14:44:57;2.00;;;0.70;;
1811;SDS011;904;47.814;11.134;2024-02-21T14:47:29;2.73;;;0.70;;
1811;SDS011;904;47.814;11.134;2024-02-21T14:49:56;1.70;;;0.57;;
1811;SDS011;904;47.814;11.134;2024-02-21T14:52:24;2.00;;;0.63;;
1811;SDS011;904;47.814;11.134;2024-02-21T14:54:52;2.10;;;0.70;;
1811;SDS011;904;47.814;11.134;2024-02-21T14:57:19;1.90;;;0.60;;
1811;SDS011;904;47.814;11.134;2024-02-21T14:59:47;2.10;;;0.73;;
1811;SDS011;904;47.814;11.134;2024-02-21T15:02:15;2.40;;;0.70;;
1811;SDS011;904;47.814;11.134;2024-02-21T15:04:42;2.20;;;0.90;;
1811;SDS011;904;47.814;11.134;2024-02-21T15:07:09;2.00;;;0.60;;
1811;SDS011;904;47.814;11.134;2024-02-21T15:09:37;2.67;;;0.70;;
1811;SDS011;904;47.814;11.134;2024-02-21T15:12:05;2.03;;;0.63;;
1811;SDS011;904;47.814;11.134;2024-02-21T15:14:33;2.30;;;0.87;;
1811;SDS011;904;47.814;11.134;2024-02-21T15:17:00;4.43;;;0.70;;
1811;SDS011;904;47.814;11.134;2024-02-21T15:19:27;2.03;;;0.80;;